Wetterdaten: Woche 30.11.15 - 06.12.15 (KW49)
Datum Zeit Temp. A. Feuchte A. Luftdruck Regen Wind Richtung Taupunkt Windchill Windben
30.11.2015 00:00 11,7 C 60 % 1013,6 hPa 0,0 l/m 23,8 km/h N 4,2 C 4,5 C 57,9 km/h
30.11.2015 01:00 11,9 C 60 % 1014,3 hPa 0,0 l/m 22,1 km/h N 4,4 C 5,2 C 60,4 km/h
30.11.2015 02:00 12,2 C 58 % 1014,1 hPa 0,0 l/m 22,2 km/h N 4,1 C 5,5 C 57,9 km/h
30.11.2015 03:00 12,5 C 56 % 1013,2 hPa 0,0 l/m 22,6 km/h N 3,9 C 5,8 C 51,9 km/h
30.11.2015 04:00 12,8 C 55 % 1013,1 hPa 0,0 l/m 26,1 km/h N 3,9 C 5,4 C 64,4 km/h
30.11.2015 05:00 13,1 C 54 % 1013,9 hPa 0,0 l/m 28,3 km/h N 4,0 C 5,3 C 63,6 km/h
30.11.2015 06:00 13,2 C 53 % 1013,6 hPa 0,0 l/m 25,9 km/h N 3,7 C 5,9 C 68,8 km/h
30.11.2015 07:00 12,6 C 57 % 1014,6 hPa 0,0 l/m 23,6 km/h N 4,3 C 5,7 C 64,0 km/h
30.11.2015 08:00 12,2 C 59 % 1014,9 hPa 0,0 l/m 17,8 km/h N 4,5 C 6,9 C 45,8 km/h
30.11.2015 09:00 12,3 C 61 % 1015,6 hPa 0,0 l/m 18,7 km/h N 4,9 C 6,6 C 55,5 km/h
30.11.2015 10:00 12,6 C 60 % 1016,5 hPa 0,0 l/m 19,7 km/h N 5,0 C 6,7 C 49,5 km/h
30.11.2015 11:00 12,5 C 60 % 1016,5 hPa 0,0 l/m 20,9 km/h N 4,9 C 6,2 C 55,5 km/h
30.11.2015 12:00 12,4 C 62 % 1016,9 hPa 0,0 l/m 19,7 km/h N 5,3 C 6,6 C 49,9 km/h
30.11.2015 13:00 12,4 C 63 % 1017,1 hPa 0,0 l/m 19,4 km/h N 5,6 C 6,6 C 47,1 km/h
30.11.2015 14:00 11,8 C 67 % 1018,0 hPa 0,0 l/m 18,8 km/h N 5,9 C 6,1 C 45,9 km/h
30.11.2015 15:00 10,0 C 78 % 1018,7 hPa 1,0 l/m 10,8 km/h N 6,3 C 7,5 C 27,0 km/h
30.11.2015 16:00 9,6 C 79 % 1018,1 hPa 0,5 l/m 12,1 km/h N 6,1 C 6,4 C 35,4 km/h
30.11.2015 17:00 11,0 C 70 % 1016,9 hPa 0,3 l/m 20,9 km/h N 5,6 C 4,2 C 51,5 km/h
30.11.2015 18:00 11,4 C 67 % 1016,9 hPa 0,0 l/m 18,5 km/h N 5,4 C 5,6 C 48,3 km/h
30.11.2015 19:00 12,0 C 63 % 1016,8 hPa 0,0 l/m 16,1 km/h N 5,1 C 7,1 C 49,1 km/h
30.11.2015 20:00 12,3 C 59 % 1016,3 hPa 0,0 l/m 16,1 km/h N 4,4 C 7,5 C 49,1 km/h
30.11.2015 21:00 12,8 C 57 % 1015,3 hPa 0,0 l/m 16,1 km/h N 4,4 C 8,1 C 52,3 km/h
30.11.2015 22:00 12,8 C 56 % 1014,8 hPa 0,0 l/m 13,7 km/h N 4,2 C 9,0 C 57,2 km/h
30.11.2015 23:00 13,1 C 54 % 1014,3 hPa 0,0 l/m 16,1 km/h N 4,0 C 8,4 C 53,1 km/h
01.12.2015 00:00 13,4 C 53 % 1014,0 hPa 0,0 l/m 16,9 km/h N 3,8 C 8,6 C 49,9 km/h
01.12.2015 01:00 13,1 C 55 % 1013,6 hPa 0,0 l/m 17,7 km/h N 4,3 C 8,0 C 54,7 km/h
01.12.2015 02:00 11,8 C 63 % 1013,5 hPa 0,0 l/m 20,1 km/h N 4,9 C 5,6 C 57,2 km/h
01.12.2015 03:00 11,3 C 66 % 1013,9 hPa 0,0 l/m 20,1 km/h N 5,1 C 4,9 C 61,9 km/h
01.12.2015 04:00 11,4 C 66 % 1013,9 hPa 0,0 l/m 18,5 km/h N 5,3 C 5,6 C 54,7 km/h
01.12.2015 05:00 11,4 C 67 % 1014,3 hPa 0,0 l/m 17,8 km/h N 5,6 C 5,8 C 51,0 km/h
01.12.2015 06:00 11,5 C 68 % 1014,7 hPa 0,0 l/m 19,0 km/h N 5,7 C 5,5 C 49,9 km/h
01.12.2015 07:00 11,6 C 67 % 1015,2 hPa 0,0 l/m 21,0 km/h N 5,7 C 5,1 C 55,9 km/h
01.12.2015 08:00 11,7 C 67 % 1016,2 hPa 0,0 l/m 19,4 km/h N 5,8 C 5,6 C 55,9 km/h
01.12.2015 09:00 11,8 C 67 % 1016,9 hPa 0,0 l/m 19,4 km/h N 6,0 C 5,8 C 55,1 km/h
01.12.2015 10:00 12,0 C 68 % 1017,6 hPa 0,0 l/m 21,1 km/h N 6,2 C 5,6 C 52,3 km/h
01.12.2015 11:00 12,4 C 67 % 1017,9 hPa 0,0 l/m 20,8 km/h N 6,4 C 6,2 C 51,1 km/h
01.12.2015 12:00 12,5 C 67 % 1018,5 hPa 0,0 l/m 19,5 km/h N 6,5 C 6,7 C 53,5 km/h
01.12.2015 13:00 11,9 C 70 % 1019,3 hPa 0,0 l/m 15,4 km/h N 6,6 C 7,3 C 40,2 km/h
01.12.2015 14:00 11,8 C 72 % 1019,8 hPa 0,0 l/m 13,2 km/h N 6,8 C 8,1 C 45,8 km/h
01.12.2015 15:00 11,3 C 75 % 1020,1 hPa 0,0 l/m 14,3 km/h N 6,9 C 7,0 C 38,2 km/h
01.12.2015 16:00 10,9 C 78 % 1020,6 hPa 0,0 l/m 16,4 km/h N 7,2 C 5,7 C 38,2 km/h
01.12.2015 17:00 11,1 C 76 % 1021,2 hPa 0,0 l/m 16,7 km/h N 7,0 C 5,9 C 38,2 km/h
01.12.2015 18:00 11,3 C 76 % 1022,2 hPa 0,0 l/m 11,1 km/h N 7,2 C 8,5 C 27,3 km/h
01.12.2015 19:00 9,4 C 82 % 1023,3 hPa 1,8 l/m 7,2 km/h N 6,3 C 8,8 C 18,5 km/h
01.12.2015 20:00 8,4 C 82 % 1024,2 hPa 1,8 l/m 7,7 km/h N 5,5 C 7,3 C 24,5 km/h
01.12.2015 21:00 8,3 C 82 % 1024,5 hPa 0,5 l/m 3,7 km/h N 5,5 C 8,3 C 11,3 km/h
01.12.2015 22:00 8,1 C 83 % 1024,8 hPa 0,3 l/m 5,8 km/h N 5,4 C 7,9 C 14,1 km/h
01.12.2015 23:00 7,8 C 83 % 1025,3 hPa 0,3 l/m 2,4 km/h N 5,0 C 7,8 C 7,2 km/h
02.12.2015 00:00 7,8 C 82 % 1025,7 hPa 0,5 l/m 0,1 km/h N 4,9 C 7,8 C 1,6 km/h
02.12.2015 01:00 7,4 C 82 % 1025,8 hPa 1,3 l/m 1,4 km/h N 4,6 C 7,4 C 4,8 km/h
02.12.2015 02:00 6,8 C 82 % 1026,1 hPa 0,5 l/m 2,1 km/h N 3,9 C 6,8 C 6,4 km/h
02.12.2015 03:00 6,4 C 82 % 1026,1 hPa 0,0 l/m 0,3 km/h N 3,5 C 6,4 C 2,4 km/h
02.12.2015 04:00 6,2 C 82 % 1026,1 hPa 0,0 l/m 1,2 km/h N 3,3 C 6,2 C 7,6 km/h
02.12.2015 05:00 5,8 C 82 % 1025,9 hPa 0,0 l/m 1,1 km/h N 2,9 C 5,8 C 7,2 km/h
02.12.2015 06:00 5,6 C 82 % 1026,1 hPa 0,0 l/m 0,4 km/h N 2,7 C 5,6 C 6,0 km/h
02.12.2015 07:00 5,8 C 81 % 1026,4 hPa 0,0 l/m 0,1 km/h N 2,8 C 5,8 C 2,0 km/h
02.12.2015 08:00 6,0 C 81 % 1026,8 hPa 0,0 l/m 0,1 km/h N 3,0 C 6,0 C 2,4 km/h
02.12.2015 09:00 7,8 C 80 % 1027,0 hPa 0,0 l/m 3,2 km/h N 4,6 C 7,8 C 11,3 km/h
02.12.2015 10:00 10,6 C 83 % 1027,5 hPa 0,0 l/m 6,8 km/h N 7,7 C 10,1 C 20,5 km/h
02.12.2015 11:00 11,5 C 79 % 1027,9 hPa 0,0 l/m 8,8 km/h N 7,9 C 10,0 C 24,9 km/h
02.12.2015 12:00 12,3 C 74 % 1027,9 hPa 0,0 l/m 7,8 km/h N 7,8 C 11,4 C 22,1 km/h
02.12.2015 13:00 12,3 C 73 % 1028,2 hPa 0,0 l/m 7,5 km/h N 7,5 C 11,6 C 18,5 km/h
02.12.2015 14:00 12,1 C 72 % 1028,1 hPa 0,0 l/m 7,7 km/h N 7,3 C 11,3 C 19,7 km/h
02.12.2015 15:00 12,1 C 70 % 1028,2 hPa 0,0 l/m 7,4 km/h N 6,8 C 11,1 C 20,5 km/h
02.12.2015 16:00 11,8 C 71 % 1028,5 hPa 0,0 l/m 5,5 km/h N 6,7 C 11,4 C 19,3 km/h
02.12.2015 17:00 11,4 C 71 % 1029,0 hPa 0,0 l/m 1,2 km/h N 6,4 C 11,4 C 8,8 km/h
02.12.2015 18:00 11,3 C 71 % 1029,2 hPa 0,0 l/m 1,7 km/h N 6,2 C 11,3 C 8,4 km/h
02.12.2015 19:00 10,8 C 72 % 1029,4 hPa 0,0 l/m 1,6 km/h N 5,9 C 10,8 C 8,8 km/h
02.12.2015 20:00 9,8 C 75 % 1029,5 hPa 0,0 l/m 0,2 km/h N 5,5 C 9,8 C 3,2 km/h
02.12.2015 21:00 8,8 C 79 % 1029,6 hPa 0,0 l/m 0,0 km/h N 5,3 C 8,8 C 0,8 km/h
02.12.2015 22:00 9,2 C 80 % 1029,6 hPa 0,0 l/m 0,1 km/h N 5,9 C 9,2 C 1,2 km/h
02.12.2015 23:00 9,2 C 79 % 1029,8 hPa 0,0 l/m 0,1 km/h N 5,8 C 9,2 C 1,2 km/h
03.12.2015 00:00 8,4 C 81 % 1029,9 hPa 0,0 l/m 0,0 km/h N 5,3 C 8,4 C 0,0 km/h
03.12.2015 01:00 7,9 C 82 % 1029,9 hPa 0,0 l/m 0,0 km/h N 5,0 C 7,9 C 0,0 km/h
03.12.2015 02:00 7,7 C 83 % 1029,9 hPa 0,0 l/m 0,0 km/h N 4,9 C 7,7 C 0,4 km/h
03.12.2015 03:00 7,4 C 83 % 1029,9 hPa 0,0 l/m 0,0 km/h N 4,7 C 7,4 C 0,0 km/h
03.12.2015 04:00 7,3 C 83 % 1029,8 hPa 0,0 l/m 0,0 km/h N 4,6 C 7,3 C 0,0 km/h
03.12.2015 05:00 7,2 C 83 % 1030,1 hPa 0,0 l/m 0,0 km/h N 4,5 C 7,2 C 0,0 km/h
03.12.2015 06:00 7,1 C 83 % 1030,4 hPa 0,0 l/m 0,0 km/h N 4,4 C 7,1 C 0,0 km/h
03.12.2015 07:00 6,9 C 83 % 1030,9 hPa 0,0 l/m 0,0 km/h N 4,3 C 6,9 C 0,0 km/h
03.12.2015 08:00 7,4 C 83 % 1031,5 hPa 0,0 l/m 0,1 km/h N 4,7 C 7,4 C 2,8 km/h
03.12.2015 09:00 8,5 C 83 % 1031,7 hPa 0,0 l/m 0,2 km/h N 5,8 C 8,5 C 4,0 km/h
03.12.2015 10:00 10,5 C 71 % 1031,8 hPa 0,0 l/m 2,8 km/h N 5,3 C 10,5 C 8,1 km/h
03.12.2015 11:00 11,2 C 65 % 1031,6 hPa 0,0 l/m 4,3 km/h N 4,9 C 11,2 C 9,7 km/h
03.12.2015 12:00 11,0 C 63 % 1031,6 hPa 0,0 l/m 2,6 km/h N 4,3 C 11,0 C 8,0 km/h
03.12.2015 13:00 10,9 C 65 % 1031,4 hPa 0,0 l/m 2,6 km/h N 4,6 C 10,9 C 8,4 km/h
03.12.2015 14:00 10,9 C 62 % 1031,3 hPa 0,0 l/m 1,8 km/h N 3,9 C 10,9 C 6,4 km/h
03.12.2015 15:00 10,2 C 63 % 1031,3 hPa 0,0 l/m 0,1 km/h N 3,5 C 10,2 C 1,2 km/h
03.12.2015 16:00 7,8 C 68 % 1031,6 hPa 0,0 l/m 0,0 km/h N 2,3 C 7,8 C 0,0 km/h
03.12.2015 17:00 5,3 C 74 % 1031,6 hPa 0,0 l/m 0,0 km/h N 1,1 C 5,3 C 0,0 km/h
03.12.2015 18:00 3,8 C 78 % 1031,6 hPa 0,0 l/m 0,0 km/h N 0,3 C 3,8 C 0,0 km/h
03.12.2015 19:00 2,5 C 80 % 1031,9 hPa 0,0 l/m 0,0 km/h N -0,7 C 2,5 C 0,0 km/h
03.12.2015 20:00 1,8 C 83 % 1031,9 hPa 0,0 l/m 0,0 km/h N -0,9 C 1,8 C 0,0 km/h
03.12.2015 21:00 1,3 C 83 % 1031,6 hPa 0,0 l/m 0,0 km/h N -1,3 C 1,3 C 0,0 km/h
03.12.2015 22:00 0,6 C 84 % 1031,5 hPa 0,0 l/m 0,1 km/h N -1,8 C 0,6 C 0,8 km/h
03.12.2015 23:00 0,0 C 84 % 1031,2 hPa 0,0 l/m 0,0 km/h N -2,3 C 0,0 C 0,0 km/h
04.12.2015 00:00 -0,2 C 84 % 1030,8 hPa 0,0 l/m 0,2 km/h N -2,7 C -0,2 C 1,6 km/h
04.12.2015 01:00 -0,5 C 84 % 1030,1 hPa 0,0 l/m 0,0 km/h N -2,9 C -0,5 C 0,0 km/h
04.12.2015 02:00 -1,2 C 84 % 1029,9 hPa 0,0 l/m 0,0 km/h N -3,5 C -1,2 C 0,0 km/h
04.12.2015 03:00 -1,3 C 84 % 1029,9 hPa 0,0 l/m 0,0 km/h N -3,8 C -1,3 C 0,0 km/h
04.12.2015 04:00 -1,6 C 84 % 1029,6 hPa 0,0 l/m 0,0 km/h N -4,0 C -1,6 C 0,0 km/h
04.12.2015 05:00 -1,9 C 84 % 1029,3 hPa 0,0 l/m 0,0 km/h N -4,3 C -1,9 C 0,0 km/h
04.12.2015 06:00 -2,0 C 83 % 1029,7 hPa 0,0 l/m 0,0 km/h N -4,5 C -2,0 C 0,0 km/h
04.12.2015 07:00 -2,0 C 83 % 1030,3 hPa 0,0 l/m 0,0 km/h N -4,4 C -2,0 C 0,0 km/h
04.12.2015 08:00 -0,4 C 83 % 1030,9 hPa 0,0 l/m 0,5 km/h N -3,0 C -0,4 C 1,2 km/h
04.12.2015 09:00 1,9 C 82 % 1031,4 hPa 0,3 l/m 0,4 km/h N -0,9 C 1,9 C 2,8 km/h
04.12.2015 10:00 4,6 C 81 % 1031,6 hPa 0,0 l/m 1,2 km/h N 1,6 C 4,6 C 4,8 km/h
04.12.2015 11:00 5,9 C 81 % 1031,2 hPa 0,0 l/m 0,1 km/h N 2,9 C 5,9 C 1,6 km/h
04.12.2015 12:00 7,2 C 81 % 1031,0 hPa 0,0 l/m 0,2 km/h N 4,2 C 7,2 C 1,6 km/h
04.12.2015 13:00 8,4 C 83 % 1031,1 hPa 0,0 l/m 0,4 km/h N 5,7 C 8,4 C 4,0 km/h
04.12.2015 14:00 9,5 C 78 % 1030,9 hPa 0,0 l/m 0,6 km/h N 5,9 C 9,5 C 6,4 km/h
04.12.2015 15:00 9,1 C 75 % 1031,4 hPa 0,0 l/m 0,0 km/h N 4,9 C 9,1 C 0,8 km/h
04.12.2015 16:00 6,6 C 78 % 1032,2 hPa 0,0 l/m 0,1 km/h N 3,0 C 6,6 C 1,6 km/h
04.12.2015 17:00 4,6 C 82 % 1032,8 hPa 0,0 l/m 0,3 km/h N 1,8 C 4,6 C 3,2 km/h
04.12.2015 18:00 4,4 C 83 % 1033,4 hPa 0,0 l/m 0,2 km/h N 1,8 C 4,4 C 3,2 km/h
04.12.2015 19:00 4,8 C 83 % 1033,7 hPa 0,0 l/m 0,2 km/h N 2,1 C 4,8 C 4,0 km/h
04.12.2015 20:00 5,2 C 83 % 1034,1 hPa 0,0 l/m 0,4 km/h N 2,5 C 5,2 C 3,2 km/h
04.12.2015 21:00 5,0 C 83 % 1034,5 hPa 0,0 l/m 0,1 km/h N 2,4 C 5,0 C 1,6 km/h
04.12.2015 22:00 5,0 C 83 % 1034,4 hPa 0,0 l/m 0,1 km/h N 2,4 C 5,0 C 3,2 km/h
04.12.2015 23:00 7,3 C 82 % 1034,2 hPa 0,0 l/m 1,7 km/h N 4,4 C 7,3 C 8,8 km/h
05.12.2015 00:00 6,1 C 82 % 1034,3 hPa 0,0 l/m 0,1 km/h N 3,2 C 6,1 C 1,2 km/h
05.12.2015 01:00 5,0 C 83 % 1034,4 hPa 0,0 l/m 0,1 km/h N 2,4 C 5,0 C 1,2 km/h
05.12.2015 02:00 4,9 C 83 % 1034,6 hPa 0,0 l/m 0,1 km/h N 2,3 C 4,9 C 1,6 km/h
05.12.2015 03:00 5,6 C 83 % 1034,6 hPa 0,0 l/m 0,2 km/h N 3,0 C 5,6 C 1,6 km/h
05.12.2015 04:00 5,7 C 83 % 1034,7 hPa 0,0 l/m 0,1 km/h N 3,0 C 5,7 C 0,8 km/h
05.12.2015 05:00 4,9 C 83 % 1034,8 hPa 0,0 l/m 0,1 km/h N 2,3 C 4,9 C 1,6 km/h
05.12.2015 06:00 4,7 C 83 % 1034,9 hPa 0,0 l/m 0,0 km/h N 2,1 C 4,7 C 0,8 km/h
05.12.2015 07:00 4,2 C 84 % 1034,8 hPa 0,0 l/m 0,0 km/h N 1,6 C 4,2 C 0,0 km/h
05.12.2015 08:00 4,4 C 83 % 1035,1 hPa 0,0 l/m 0,0 km/h N 1,7 C 4,4 C 2,4 km/h
05.12.2015 09:00 5,5 C 83 % 1035,3 hPa 0,0 l/m 0,0 km/h N 2,8 C 5,5 C 1,6 km/h
05.12.2015 10:00 7,4 C 83 % 1035,2 hPa 0,0 l/m 0,0 km/h N 4,6 C 7,4 C 3,2 km/h
05.12.2015 11:00 8,7 C 82 % 1034,8 hPa 0,0 l/m 0,0 km/h N 5,8 C 8,7 C 4,0 km/h
05.12.2015 12:00 10,8 C 77 % 1033,6 hPa 0,0 l/m 0,0 km/h N 6,9 C 10,8 C 3,2 km/h
05.12.2015 13:00 11,9 C 70 % 1032,8 hPa 0,0 l/m 0,0 km/h N 6,6 C 11,9 C 4,0 km/h
05.12.2015 14:00 11,9 C 71 % 1031,8 hPa 0,0 l/m 0,0 km/h N 6,7 C 11,9 C 4,8 km/h
05.12.2015 15:00 10,1 C 72 % 1031,9 hPa 0,0 l/m 0,0 km/h N 5,3 C 10,1 C 3,2 km/h
05.12.2015 16:00 7,6 C 77 % 1032,0 hPa 0,0 l/m 0,0 km/h N 3,7 C 7,6 C 0,0 km/h
05.12.2015 17:00 5,2 C 79 % 1032,3 hPa 0,0 l/m 0,0 km/h N 1,9 C 5,2 C 0,0 km/h
05.12.2015 18:00 3,6 C 82 % 1032,3 hPa 0,0 l/m 0,0 km/h N 0,7 C 3,6 C 0,0 km/h
05.12.2015 19:00 3,0 C 83 % 1032,8 hPa 0,0 l/m 0,0 km/h N 0,5 C 3,0 C 2,4 km/h
05.12.2015 20:00 2,3 C 84 % 1033,0 hPa 0,0 l/m 0,0 km/h N -0,2 C 2,3 C 0,0 km/h
05.12.2015 21:00 1,6 C 84 % 1032,8 hPa 0,0 l/m 0,0 km/h N -0,8 C 1,6 C 0,0 km/h
05.12.2015 22:00 0,7 C 84 % 1032,1 hPa 0,0 l/m 0,0 km/h N -1,7 C 0,7 C 0,0 km/h
05.12.2015 23:00 0,3 C 84 % 1031,8 hPa 0,0 l/m 0,0 km/h N -2,2 C 0,3 C 0,8 km/h
06.12.2015 00:00 0,8 C 83 % 1031,9 hPa 0,0 l/m 0,0 km/h N -1,8 C 0,8 C 0,0 km/h
06.12.2015 01:00 1,5 C 83 % 1032,0 hPa 0,0 l/m 0,0 km/h N -1,0 C 1,5 C 1,6 km/h
06.12.2015 02:00 2,4 C 82 % 1032,2 hPa 0,0 l/m 0,0 km/h N -0,3 C 2,4 C 1,6 km/h
06.12.2015 03:00 2,8 C 82 % 1032,3 hPa 0,0 l/m 0,0 km/h N 0,0 C 2,8 C 0,0 km/h
06.12.2015 04:00 3,1 C 82 % 1032,1 hPa 0,0 l/m 0,0 km/h N 0,3 C 3,1 C 4,0 km/h
06.12.2015 05:00 2,9 C 82 % 1032,3 hPa 0,3 l/m 0,0 km/h N 0,1 C 2,9 C 4,8 km/h
06.12.2015 06:00 2,8 C 82 % 1032,2 hPa 0,0 l/m 0,0 km/h N -0,0 C 2,8 C 5,6 km/h
06.12.2015 07:00 2,5 C 82 % 1032,4 hPa 0,0 l/m 0,0 km/h N -0,2 C 2,5 C 4,0 km/h
06.12.2015 08:00 2,5 C 82 % 1032,9 hPa 0,0 l/m 0,0 km/h N -0,3 C 2,5 C 4,8 km/h
06.12.2015 09:00 2,6 C 82 % 1033,4 hPa 0,0 l/m 0,0 km/h N -0,2 C 2,6 C 5,6 km/h
06.12.2015 10:00 2,7 C 82 % 1033,7 hPa 0,0 l/m 0,0 km/h N -0,1 C 2,7 C 4,8 km/h
06.12.2015 11:00 2,7 C 81 % 1033,8 hPa 0,0 l/m 0,0 km/h N -0,3 C 2,7 C 5,6 km/h
06.12.2015 12:00 2,8 C 81 % 1033,6 hPa 0,0 l/m 0,0 km/h N -0,2 C 2,8 C 5,6 km/h
06.12.2015 13:00 2,7 C 81 % 1033,4 hPa 0,0 l/m 0,0 km/h N -0,2 C 2,7 C 6,4 km/h
06.12.2015 14:00 2,7 C 81 % 1033,0 hPa 0,0 l/m 0,8 km/h N -0,3 C 2,7 C 5,6 km/h
06.12.2015 15:00 2,6 C 81 % 1032,8 hPa 0,0 l/m 1,6 km/h N -0,3 C 2,6 C 11,3 km/h
06.12.2015 16:00 2,5 C 81 % 1033,2 hPa 0,0 l/m 0,8 km/h N -0,4 C 2,5 C 8,1 km/h
06.12.2015 17:00 2,3 C 81 % 1033,3 hPa 0,0 l/m 0,8 km/h N -0,6 C 2,3 C 11,3 km/h
06.12.2015 18:00 2,3 C 81 % 1033,4 hPa 0,0 l/m 1,6 km/h N -0,6 C 2,3 C 8,9 km/h
06.12.2015 19:00 2,3 C 81 % 1033,7 hPa 0,0 l/m 0,8 km/h N -0,6 C 2,3 C 8,0 km/h
06.12.2015 20:00 2,3 C 81 % 1033,9 hPa 0,0 l/m 1,6 km/h N -0,7 C 2,3 C 7,2 km/h
06.12.2015 21:00 2,2 C 81 % 1034,3 hPa 0,0 l/m 0,0 km/h N -0,8 C 2,2 C 6,4 km/h
06.12.2015 22:00 2,0 C 81 % 1034,4 hPa 0,0 l/m 0,8 km/h N -0,9 C 2,0 C 5,6 km/h
06.12.2015 23:00 1,7 C 81 % 1034,8 hPa 0,0 l/m 0,8 km/h N -1,2 C 1,7 C 5,6 km/h
Min-Datum _ 04.12.15 30.11.15 30.11.15 - 02.12.15 - 04.12.15 04.12.15 02.12.15
_ Min-Zeit 06:30 06:15 03:45 - 00:15 - 07:00 07:00 00:15
Minimum _ -2,1 C 52 % 1012,9 hPa - 0,0 km/h - -4,6 C -2,1 C 0,0 km/h
Max-Datum _ 01.12.15 03.12.15 05.12.15 01.12.15 30.11.15 - 02.12.15 02.12.15 30.11.15
_ Max-Zeit 00:00 22:00 10:00 19:30 05:45 - 11:30 12:45 07:00
Maximum _ 13,4 C 84 % 1035,4 hPa 1,8 l/m 30,7 km/h
N
- 8,0 C 12,4 C 74,0 km/h
N
Durchschnitt _ 7,2 C 76 % 1027,3 hPa #9,4 l/m 5,5 km/h N 3,1 C 5,7 C 16,5 km/h